Singapore, Singapore
Current Conditions -  °F | °C
As of 2:00 PM on Monday 24 Nov 2014 (Local Time) from WSAP Reporting Station
Scattered Clouds Scattered Clouds  
Wind Chill: 88°   Ceiling: Unl
Heat Index: 100°   Visibility: 6mi
Dew Point: 77°   Wind: 1mph
Humidity: 70%   Direction: 270°W
Pressure: 29.77"   Gusts: NA
Location:  1.3°N, 103.85°E
Report Text: WSAP 240600Z 27001KT 9999 SCT018TCU FEW020CB SCT300 31/25 Q1008
Loading
Personal Weather Stations






























Interactive Weather Map New forecast layout! Learn more

10-Day Weather Forecast

Advertisements
Track Severe Weather on mobile